Woodford, Illinois
Current Conditions -  °F | °C
As of 6:35 PM on Monday 24 Nov 2014 (Local Time) from KC75 Reporting Station
Light Snow Light Snow  
Wind Chill: 18°   Ceiling: 2700
Heat Index: 28°   Visibility: 7mi
Dew Point: 22°   Wind: 12mph
Humidity: 80%   Direction: 260°W
Pressure: 29.79"   Gusts: 18mph
Location:  40.8848°N, 89.0396°W
Report Text: KC75 250035Z AUTO 26010G16KT 7SM -SN SCT019 OVC027 M02/M05 A2979 RMK AO2 T10221053
Loading
Personal Weather Stations






























Interactive Weather Map New forecast layout! Learn more

10-Day Weather Forecast

Advertisements
Track Severe Weather on mobile